Time;durP1;ratioP1;P1;durP2;ratioP2;P2;SDS_P1;SDS_P2;PMS_P1;PMS_P2;Temp;Humidity;BMP_temperature;BMP_pressure;BME280_temperature;BME280_humidity;BME280_pressure;Samples;Min_cycle;Max_cycle;Signal;HPM_P1;HPM_P2
2020/12/30 00:01:00;;;;;;;10.55;6.78;;;;;;;21.57;24.77;93991.47;5015915;28;20480;-56
2020/12/30 00:03:27;;;;;;;8.43;5.40;;;;;;;21.71;24.63;93991.63;5017920;28;20482;-55
2020/12/30 00:05:54;;;;;;;8.15;4.18;;;;;;;21.61;25.00;93992.31;5035286;28;20053;-52
2020/12/30 00:08:21;;;;;;;7.63;4.35;;;;;;;21.35;25.13;94007.22;5035471;28;20057;-53
2020/12/30 00:10:48;;;;;;;6.10;3.85;;;;;;;21.35;24.93;94012.53;5015886;28;20053;-55
2020/12/30 00:13:18;;;;;;;8.40;4.68;;;;;;;21.07;25.52;94001.50;5033142;28;20056;-56
2020/12/30 00:15:45;;;;;;;10.20;4.00;;;;;;;21.02;25.79;94009.81;5035148;28;20049;-52
2020/12/30 00:18:12;;;;;;;6.78;4.07;;;;;;;21.27;25.27;94016.22;5035247;28;20057;-52
2020/12/30 00:20:39;;;;;;;6.93;4.75;;;;;;;21.25;25.30;94013.16;5035200;28;20045;-54
2020/12/30 00:23:06;;;;;;;8.50;4.90;;;;;;;21.04;25.75;94013.63;5034669;28;20079;-57
2020/12/30 00:25:33;;;;;;;10.55;7.35;;;;;;;22.31;23.54;94018.06;5034896;28;20064;-55
2020/12/30 00:28:00;;;;;;;10.90;6.70;;;;;;;22.01;24.11;94005.59;5016279;28;20060;-54
2020/12/30 00:30:27;;;;;;;11.75;7.07;;;;;;;21.31;25.34;94000.31;5015312;28;20369;-52
2020/12/30 00:32:55;;;;;;;12.20;8.00;;;;;;;21.43;25.04;94008.06;5021245;28;20052;-57
2020/12/30 00:35:22;;;;;;;12.80;8.68;;;;;;;22.04;24.08;94018.22;5020198;28;20083;-52
2020/12/30 00:37:49;;;;;;;12.90;8.73;;;;;;;22.87;23.14;94003.63;5048381;28;20443;-54
2020/12/30 00:40:16;;;;;;;11.77;8.60;;;;;;;22.10;23.94;94008.75;5034786;28;20049;-54
2020/12/30 00:42:43;;;;;;;13.88;8.75;;;;;;;21.61;24.64;93998.41;5035029;28;20060;-53
2020/12/30 00:45:11;;;;;;;13.07;9.05;;;;;;;20.79;25.66;93991.28;5034488;28;20466;-57
2020/12/30 00:47:38;;;;;;;12.70;8.55;;;;;;;20.79;25.67;93992.03;5035904;28;20049;-57
2020/12/30 00:50:06;;;;;;;15.25;8.70;;;;;;;20.72;26.18;93991.19;5074542;28;20455;-54
2020/12/30 00:52:37;;;;;;;11.73;8.30;;;;;;;20.57;26.13;94008.81;5053777;28;20479;-57
2020/12/30 00:55:12;;;;;;;13.15;9.30;;;;;;;20.27;26.53;94004.16;5051990;28;20368;-57
2020/12/30 00:57:48;;;;;;;13.57;8.63;;;;;;;21.18;25.46;94008.50;5088413;28;20045;-53
2020/12/30 01:00:17;;;;;;;11.93;7.93;;;;;;;20.72;26.00;93999.91;5073528;28;20052;-55
2020/12/30 01:03:03;;;;;;;11.43;7.15;;;;;;;20.57;26.43;94000.84;5074275;28;20051;-53
2020/12/30 01:05:30;;;;;;;12.02;7.60;;;;;;;20.56;26.36;94004.63;5074168;28;20068;-55
2020/12/30 01:07:57;;;;;;;11.32;6.80;;;;;;;21.73;24.66;93995.47;5070931;28;20506;-52
2020/12/30 01:10:24;;;;;;;9.48;6.40;;;;;;;21.64;24.83;93994.25;5034442;28;20048;-55
2020/12/30 01:12:51;;;;;;;9.70;7.03;;;;;;;21.72;24.51;93993.16;5034355;28;20456;-54
2020/12/30 01:15:19;;;;;;;8.48;5.32;;;;;;;22.00;24.27;93976.69;5034078;28;20052;-54
2020/12/30 01:17:46;;;;;;;10.35;6.60;;;;;;;21.36;25.13;93982.16;5035869;28;20372;-55
2020/12/30 01:20:13;;;;;;;9.43;5.70;;;;;;;21.63;24.54;93984.72;5074088;28;20048;-52
2020/12/30 01:22:40;;;;;;;12.15;7.55;;;;;;;20.84;25.59;93983.00;5054812;28;20480;-56
2020/12/30 01:25:07;;;;;;;11.75;7.45;;;;;;;20.51;26.11;93981.03;5049289;28;20049;-57
2020/12/30 01:27:34;;;;;;;8.65;5.65;;;;;;;20.83;25.93;93984.91;5034265;28;20380;-56
2020/12/30 01:30:01;;;;;;;8.90;6.35;;;;;;;21.20;24.99;93978.91;5051305;28;20080;-52
2020/12/30 01:32:29;;;;;;;10.07;6.50;;;;;;;21.08;25.22;93977.25;5034047;28;20053;-52
2020/12/30 01:34:56;;;;;;;10.68;7.07;;;;;;;20.91;25.46;93975.91;5033776;28;20041;-51
2020/12/30 01:37:24;;;;;;;6.97;5.13;;;;;;;22.17;24.23;93984.13;5034361;28;20053;-54
2020/12/30 01:39:52;;;;;;;8.70;6.53;;;;;;;21.31;24.81;93969.16;5049546;28;20049;-52
2020/12/30 01:42:19;;;;;;;10.73;6.72;;;;;;;20.87;25.56;93975.09;5033850;28;20060;-51
2020/12/30 01:44:46;;;;;;;8.25;4.88;;;;;;;21.26;25.22;93963.41;5033741;28;20056;-52
2020/12/30 01:47:14;;;;;;;9.32;5.30;;;;;;;21.14;25.20;93964.41;5033086;28;20121;-53
2020/12/30 01:49:41;;;;;;;7.13;3.85;;;;;;;22.26;23.94;93965.16;5064861;28;20051;-54
2020/12/30 01:52:08;;;;;;;5.18;3.17;;;;;;;21.86;24.11;93956.06;5038979;28;20049;-51
2020/12/30 01:54:36;;;;;;;5.47;3.17;;;;;;;21.67;24.61;93970.31;5047202;28;20045;-56
2020/12/30 01:57:04;;;;;;;5.78;3.10;;;;;;;21.84;24.28;93959.06;5053691;28;20057;-53
2020/12/30 01:59:31;;;;;;;4.70;3.60;;;;;;;21.71;24.58;93957.81;5067603;28;20052;-51
2020/12/30 02:02:04;;;;;;;6.53;3.75;;;;;;;21.03;25.60;93963.50;5073777;28;20060;-53
2020/12/30 02:04:45;;;;;;;7.88;3.97;;;;;;;21.72;24.31;93935.41;5043831;28;20061;-51
2020/12/30 02:07:12;;;;;;;6.10;4.00;;;;;;;21.18;25.23;93941.28;5033516;28;20053;-52
2020/12/30 02:09:40;;;;;;;8.73;4.32;;;;;;;21.66;24.50;93962.72;5036901;28;20428;-50
2020/12/30 02:12:09;;;;;;;8.45;4.38;;;;;;;22.46;23.24;93939.81;5033815;28;20391;-52
2020/12/30 02:14:36;;;;;;;7.47;4.13;;;;;;;21.58;24.64;93940.59;5033771;28;20049;-57
2020/12/30 02:17:04;;;;;;;8.35;4.55;;;;;;;21.71;24.48;93939.19;5033508;28;20057;-51
2020/12/30 02:19:31;;;;;;;6.70;4.20;;;;;;;22.15;23.71;93946.44;5060498;28;20040;-55
2020/12/30 02:22:03;;;;;;;9.30;4.78;;;;;;;22.37;23.62;93952.66;5073574;28;20048;-56
2020/12/30 02:24:34;;;;;;;7.78;4.25;;;;;;;21.94;24.10;93947.00;5031564;28;20041;-51
2020/12/30 02:27:05;;;;;;;7.78;4.65;;;;;;;21.47;24.85;93948.47;5045259;28;20065;-55
2020/12/30 02:29:33;;;;;;;9.35;5.85;;;;;;;21.02;25.42;93961.97;5056550;28;20064;-53
2020/12/30 02:32:00;;;;;;;8.77;5.63;;;;;;;20.87;25.59;93948.53;5033663;28;20372;-54
2020/12/30 02:34:28;;;;;;;10.25;7.63;;;;;;;20.86;25.77;93923.09;5033398;28;20041;-52
2020/12/30 02:36:56;;;;;;;7.50;5.25;;;;;;;20.67;26.32;93936.50;5033435;28;20072;-52
2020/12/30 02:39:24;;;;;;;10.82;5.80;;;;;;;21.03;25.59;93947.56;5043438;28;20337;-52
2020/12/30 02:41:51;;;;;;;7.65;5.15;;;;;;;20.87;26.11;93934.47;5053228;28;20055;-51
2020/12/30 02:44:19;;;;;;;9.75;5.10;;;;;;;20.93;25.90;93928.47;5053310;28;20333;-54
2020/12/30 02:46:46;;;;;;;7.78;4.80;;;;;;;20.85;26.25;93926.88;5053010;28;20432;-55
2020/12/30 02:49:14;;;;;;;6.25;4.45;;;;;;;20.88;25.81;93931.47;5052825;28;20055;-51
2020/12/30 02:51:44;;;;;;;7.15;4.55;;;;;;;21.07;25.77;93927.09;5053156;28;20048;-54
2020/12/30 02:54:11;;;;;;;7.18;4.60;;;;;;;20.70;26.22;93941.09;5042561;28;20046;-51
2020/12/30 02:56:38;;;;;;;5.97;3.90;;;;;;;20.47;26.38;93935.84;5032981;28;20053;-55
2020/12/30 02:59:06;;;;;;;5.90;4.10;;;;;;;20.67;26.42;93939.16;5051413;28;20056;-51
2020/12/30 03:01:33;;;;;;;8.07;4.03;;;;;;;20.85;25.75;93947.34;5076657;28;20059;-54
2020/12/30 03:04:00;;;;;;;7.97;4.05;;;;;;;20.63;26.20;93927.72;5076739;28;20459;-54
2020/12/30 03:06:27;;;;;;;6.10;3.70;;;;;;;20.72;26.30;93924.78;5076349;28;20418;-54
2020/12/30 03:08:54;;;;;;;8.05;5.10;;;;;;;20.52;26.63;93918.84;5069658;28;20433;-51
2020/12/30 03:11:21;;;;;;;9.52;5.78;;;;;;;20.72;26.17;93925.56;5056832;28;20052;-52
2020/12/30 03:13:49;;;;;;;7.47;4.35;;;;;;;20.68;26.17;93932.72;5056437;28;20045;-54
2020/12/30 03:16:16;;;;;;;7.13;3.70;;;;;;;20.91;25.80;93936.03;5056277;28;20045;-52
2020/12/30 03:18:44;;;;;;;9.70;5.25;;;;;;;20.70;26.38;93941.09;5053245;28;20048;-52
2020/12/30 03:21:11;;;;;;;12.50;7.70;;;;;;;20.65;26.23;93940.63;5056247;28;20056;-51
2020/12/30 03:23:38;;;;;;;12.65;6.75;;;;;;;20.68;26.33;93927.41;5056195;28;20363;-55
2020/12/30 03:26:05;;;;;;;8.10;6.05;;;;;;;20.88;26.24;93936.78;5056244;28;20076;-52
2020/12/30 03:28:32;;;;;;;13.63;7.28;;;;;;;20.61;26.48;93943.25;5056119;28;20083;-53
2020/12/30 03:31:00;;;;;;;9.82;6.68;;;;;;;20.82;26.04;93942.78;5056205;28;20048;-53
2020/12/30 03:33:27;;;;;;;9.52;5.97;;;;;;;20.61;26.72;93927.31;5056119;28;20040;-53
2020/12/30 03:35:54;;;;;;;10.35;6.38;;;;;;;20.60;26.38;93925.78;5055764;28;20060;-53
2020/12/30 03:38:21;;;;;;;11.20;7.45;;;;;;;21.29;25.38;93928.91;5056595;28;20057;-54
2020/12/30 03:40:49;;;;;;;12.05;6.70;;;;;;;21.06;26.05;93921.03;5076081;28;20048;-51
2020/12/30 03:43:16;;;;;;;8.88;5.82;;;;;;;20.75;26.56;93918.75;5075993;28;20059;-52
2020/12/30 03:45:43;;;;;;;9.98;6.15;;;;;;;20.67;26.65;93907.28;5066374;28;20049;-52
2020/12/30 03:48:10;;;;;;;10.77;6.40;;;;;;;20.32;27.13;93910.97;5055817;28;20053;-52
2020/12/30 03:50:38;;;;;;;9.45;5.22;;;;;;;20.60;26.64;93905.31;5056030;28;20124;-54
2020/12/30 03:53:05;;;;;;;14.48;6.00;;;;;;;20.62;26.36;93916.34;5055744;28;20564;-52
2020/12/30 03:55:32;;;;;;;12.38;6.60;;;;;;;20.55;26.71;93902.19;5055441;28;20052;-51
2020/12/30 03:57:59;;;;;;;18.35;9.95;;;;;;;20.41;26.86;93925.91;5055522;28;20367;-51
2020/12/30 04:00:26;;;;;;;17.63;9.63;;;;;;;20.37;26.92;93907.25;5055412;28;20052;-54
2020/12/30 04:02:53;;;;;;;13.35;7.13;;;;;;;20.71;26.68;93900.13;5055630;28;20371;-55
2020/12/30 04:05:21;;;;;;;9.43;5.80;;;;;;;20.59;26.55;93917.06;5055209;28;20056;-51
2020/12/30 04:07:49;;;;;;;10.80;6.40;;;;;;;20.85;26.45;93916.25;5055561;28;20048;-52
2020/12/30 04:10:16;;;;;;;13.98;9.07;;;;;;;20.62;26.80;93896.97;5070843;28;20348;-51
2020/12/30 04:12:44;;;;;;;15.50;9.40;;;;;;;20.57;26.69;93921.97;5075110;28;20048;-55
2020/12/30 04:15:11;;;;;;;20.13;12.07;;;;;;;21.49;25.29;93911.63;5070930;28;20044;-55
2020/12/30 04:17:38;;;;;;;16.92;10.93;;;;;;;20.53;26.80;93912.41;5035311;28;20053;-53
2020/12/30 04:20:05;;;;;;;19.08;10.30;;;;;;;20.67;26.40;93920.56;5037835;28;20052;-52
2020/12/30 04:22:32;;;;;;;18.23;7.25;;;;;;;20.70;26.29;93919.84;5051660;28;20049;-52
2020/12/30 04:24:59;;;;;;;15.10;8.98;;;;;;;20.57;26.66;93921.19;5054463;28;20403;-53
2020/12/30 04:27:26;;;;;;;13.82;8.10;;;;;;;20.51;26.79;93918.06;5055156;28;20057;-52
2020/12/30 04:29:53;;;;;;;16.73;9.32;;;;;;;20.75;26.39;93908.13;5067368;28;20055;-51
2020/12/30 04:32:20;;;;;;;10.93;6.82;;;;;;;20.76;26.29;93917.63;5075012;28;20056;-53
2020/12/30 04:34:48;;;;;;;10.10;6.28;;;;;;;20.50;26.82;93892.63;5074779;28;20063;-53
2020/12/30 04:37:15;;;;;;;10.15;5.85;;;;;;;20.73;26.60;93905.06;5074770;28;20049;-52
2020/12/30 04:39:42;;;;;;;10.32;5.88;;;;;;;20.58;26.34;93901.47;5063636;28;20041;-52
2020/12/30 04:42:11;;;;;;;10.55;5.75;;;;;;;20.45;26.84;93897.50;5054736;28;20056;-51
2020/12/30 04:44:43;;;;;;;10.02;5.63;;;;;;;20.63;26.58;93909.13;5053598;28;20056;-52
2020/12/30 04:47:10;;;;;;;;;;;;;;;20.32;26.94;93905.66;5053992;28;20045;-50
2020/12/30 04:49:37;;;;;;;10.23;5.70;;;;;;;20.38;26.92;93897.38;5063809;28;19912;-54
2020/12/30 04:52:05;;;;;;;12.00;7.18;;;;;;;20.17;26.90;93908.47;5074304;28;20048;-53
2020/12/30 04:54:34;;;;;;;13.85;8.77;;;;;;;20.53;26.63;93912.41;5046786;28;20756;-52
2020/12/30 04:57:03;;;;;;;15.70;9.68;;;;;;;20.35;26.77;93914.78;5033452;28;20049;-58
2020/12/30 04:59:40;;;;;;;18.00;10.85;;;;;;;19.85;27.46;93914.06;5056425;22;20059;-53
2020/12/30 05:02:11;;;;;;;14.15;8.57;;;;;;;19.77;27.72;93919.56;5058222;28;20071;-52
2020/12/30 05:04:40;;;;;;;16.52;11.80;;;;;;;20.29;27.05;93906.34;5074288;28;20059;-52
2020/12/30 05:07:09;;;;;;;20.60;12.18;;;;;;;19.78;27.59;93903.34;5074158;28;20443;-54
2020/12/30 05:09:37;;;;;;;13.07;8.05;;;;;;;19.88;27.61;93925.84;5053951;28;20055;-51
2020/12/30 05:12:13;;;;;;;17.70;10.38;;;;;;;19.57;27.90;93913.59;5065020;28;20052;-56
2020/12/30 05:14:40;;;;;;;15.70;11.35;;;;;;;20.30;27.14;93912.47;5057113;28;20055;-51
2020/12/30 05:17:08;;;;;;;12.18;9.15;;;;;;;20.26;26.76;93906.31;5053898;28;20049;-51
2020/12/30 05:19:36;;;;;;;21.75;12.93;;;;;;;20.00;27.24;93909.72;5054059;28;20049;-52
2020/12/30 05:22:04;;;;;;;26.05;14.77;;;;;;;20.25;26.63;93902.88;5053807;28;20059;-51
2020/12/30 05:24:32;;;;;;;10.32;7.95;;;;;;;20.55;26.13;93904.84;5057250;28;20469;-55
2020/12/30 05:27:00;;;;;;;12.05;8.85;;;;;;;19.98;27.04;93888.09;5073974;28;20052;-52
2020/12/30 05:29:27;;;;;;;11.43;8.13;;;;;;;20.54;26.10;93900.66;5073280;28;20048;-51
2020/12/30 05:31:56;;;;;;;8.43;6.25;;;;;;;21.29;24.96;93870.41;5073597;28;20059;-53
2020/12/30 05:34:23;;;;;;;14.60;11.00;;;;;;;20.40;26.50;93879.22;5074029;28;20056;-55
2020/12/30 05:36:51;;;;;;;15.48;10.68;;;;;;;20.03;26.66;93880.59;5074000;28;20044;-56
2020/12/30 05:39:36;;;;;;;12.35;8.23;;;;;;;20.05;26.89;93895.41;5073636;28;20052;-53
2020/12/30 05:42:14;;;;;;;12.43;8.52;;;;;;;19.91;26.97;93883.44;5073710;28;20060;-52
2020/12/30 05:44:49;;;;;;;10.18;6.75;;;;;;;19.90;27.02;93879.25;5070163;28;20344;-52
2020/12/30 05:47:26;;;;;;;14.13;7.88;;;;;;;19.91;26.89;93880.03;5073628;28;20422;-52
2020/12/30 05:49:55;;;;;;;11.68;8.65;;;;;;;19.46;27.59;93868.28;5072651;28;20375;-54
2020/12/30 05:52:24;;;;;;;10.98;7.22;;;;;;;19.81;27.13;93880.66;5073911;28;20052;-54
2020/12/30 05:54:54;;;;;;;11.90;8.00;;;;;;;19.76;26.99;93900.25;5073857;28;20048;-51
2020/12/30 05:57:24;;;;;;;8.95;7.05;;;;;;;19.85;27.17;93861.00;5073619;28;20045;-52
2020/12/30 05:59:56;;;;;;;8.07;6.30;;;;;;;19.64;27.38;93893.25;5072658;28;20506;-53
2020/12/30 06:02:28;;;;;;;9.65;5.78;;;;;;;19.95;26.81;93870.22;5073768;28;20052;-52
2020/12/30 06:05:12;;;;;;;7.80;5.82;;;;;;;19.85;27.19;93892.06;5072091;28;20358;-53
2020/12/30 06:07:41;;;;;;;11.75;5.63;;;;;;;20.02;26.81;93891.56;5069854;28;20048;-57
2020/12/30 06:10:10;;;;;;;9.35;5.70;;;;;;;19.93;27.04;93883.84;5073206;28;20482;-52
2020/12/30 06:12:49;;;;;;;11.38;5.75;;;;;;;19.87;27.08;93903.09;5073479;28;20067;-49
2020/12/30 06:15:21;;;;;;;12.60;7.40;;;;;;;19.85;27.03;93915.94;5073407;28;20041;-52
2020/12/30 06:17:52;;;;;;;9.88;7.20;;;;;;;19.90;26.84;93903.13;5073270;28;20055;-47
2020/12/30 06:20:33;;;;;;;9.05;5.57;;;;;;;19.90;27.10;93902.38;5073150;28;20056;-52
2020/12/30 06:23:03;;;;;;;13.95;7.80;;;;;;;20.51;25.81;93914.66;5056259;28;20453;-52
2020/12/30 06:25:35;;;;;;;12.55;8.32;;;;;;;19.99;26.63;93918.78;5073470;28;20052;-53
2020/12/30 06:28:08;;;;;;;16.60;9.10;;;;;;;20.73;25.83;93955.53;5073359;28;20056;-52
2020/12/30 06:30:36;;;;;;;15.27;8.30;;;;;;;21.16;24.88;93933.69;5072665;28;20040;-57
2020/12/30 06:33:04;;;;;;;16.55;8.52;;;;;;;20.31;26.28;93946.59;5092358;28;20055;-57
2020/12/30 06:35:33;;;;;;;12.45;7.28;;;;;;;20.20;26.65;93937.69;5096953;28;20048;-54
2020/12/30 06:38:27;;;;;;;9.18;5.93;;;;;;;20.29;26.27;93911.66;5097870;28;20320;-54
2020/12/30 06:41:05;;;;;;;7.32;4.38;;;;;;;20.43;26.34;93947.53;5084150;28;20051;-53
2020/12/30 06:43:46;;;;;;;10.70;4.43;;;;;;;20.52;26.00;93940.06;5077027;28;20052;-53
2020/12/30 06:46:15;;;;;;;7.50;4.22;;;;;;;20.62;25.96;93934.91;5077242;28;20051;-51
2020/12/30 06:48:54;;;;;;;7.22;4.18;;;;;;;20.60;25.68;93941.72;5077304;28;20049;-52
2020/12/30 06:51:21;;;;;;;8.25;4.20;;;;;;;20.91;25.32;93936.03;5076657;28;20640;-55
2020/12/30 06:53:50;;;;;;;11.90;7.20;;;;;;;21.36;24.58;93942.28;5077067;28;20056;-54
2020/12/30 06:56:35;;;;;;;13.32;8.52;;;;;;;21.62;24.16;93924.69;5076858;28;20047;-55
2020/12/30 06:59:04;;;;;;;11.50;8.07;;;;;;;20.98;25.31;93971.78;5076671;28;20052;-55
2020/12/30 07:01:57;;;;;;;13.30;8.98;;;;;;;21.20;25.00;93931.06;5076093;28;20067;-52
2020/12/30 07:04:24;;;;;;;;;;;;;;;20.75;25.96;93945.31;5077175;28;20052;-53
2020/12/30 07:06:54;;;;;;;15.38;8.18;;;;;;;20.88;25.63;93963.34;5076628;28;19916;-53
2020/12/30 07:09:48;;;;;;;13.20;9.20;;;;;;;21.63;24.58;93963.44;5076604;28;20052;-52
2020/12/30 07:12:15;;;;;;;12.00;9.02;;;;;;;21.76;24.09;93976.09;5054039;28;20352;-51
2020/12/30 07:14:43;;;;;;;14.40;9.77;;;;;;;22.38;23.68;93978.97;5068435;28;20074;-54
2020/12/30 07:17:10;;;;;;;13.13;9.35;;;;;;;22.36;23.55;93973.22;5076273;28;20103;-54
2020/12/30 07:19:38;;;;;;;13.95;9.05;;;;;;;22.31;23.72;93976.22;5075982;28;20052;-53
2020/12/30 07:22:10;;;;;;;15.77;9.15;;;;;;;21.49;24.65;93990.66;5076384;28;20048;-54
2020/12/30 07:24:55;;;;;;;19.33;11.65;;;;;;;22.97;22.63;93981.63;5076412;28;20051;-52
2020/12/30 07:27:27;;;;;;;12.52;8.02;;;;;;;21.86;23.96;93980.00;5058169;28;20048;-52
2020/12/30 07:29:54;;;;;;;13.20;7.97;;;;;;;21.63;24.62;93968.78;5075303;28;20052;-52
2020/12/30 07:32:21;;;;;;;14.05;8.55;;;;;;;21.97;23.85;93988.09;5076394;28;20293;-52
2020/12/30 07:34:50;;;;;;;17.13;9.32;;;;;;;21.30;25.22;93978.28;5076454;28;20056;-52
2020/12/30 07:37:17;;;;;;;14.70;8.95;;;;;;;21.25;24.96;93973.28;5076131;28;20040;-53
2020/12/30 07:39:48;;;;;;;14.27;9.15;;;;;;;21.28;25.07;93983.19;5075747;28;20475;-52
2020/12/30 07:42:20;;;;;;;21.65;10.75;;;;;;;21.29;25.48;93962.69;5076059;28;20055;-53
2020/12/30 07:44:56;;;;;;;16.55;9.85;;;;;;;21.11;25.56;93981.09;5058430;28;20489;-51
2020/12/30 07:47:25;;;;;;;20.25;11.57;;;;;;;21.05;25.64;93972.63;5075803;28;20052;-53
2020/12/30 07:49:59;;;;;;;19.90;10.75;;;;;;;21.54;25.01;93969.81;5075422;28;20059;-55
2020/12/30 07:52:26;;;;;;;14.90;10.02;;;;;;;21.11;25.85;93986.41;5058297;28;20521;-52
2020/12/30 07:54:53;;;;;;;14.48;8.02;;;;;;;21.98;24.26;93973.66;5075865;28;20056;-53
2020/12/30 07:57:20;;;;;;;16.20;8.32;;;;;;;22.43;24.00;93973.28;5075820;28;20067;-52
2020/12/30 07:59:49;;;;;;;16.98;8.73;;;;;;;22.17;23.98;93964.72;5057210;28;20045;-51
2020/12/30 08:02:17;;;;;;;13.90;7.75;;;;;;;21.61;25.15;93968.38;5075558;28;20123;-53
2020/12/30 08:04:46;;;;;;;15.00;8.40;;;;;;;21.36;25.27;93982.16;5075608;28;20059;-51
2020/12/30 08:07:15;;;;;;;14.23;8.38;;;;;;;22.02;24.21;93985.09;5095421;28;20052;-52
2020/12/30 08:09:43;;;;;;;15.20;7.20;;;;;;;21.57;25.02;93970.19;5095562;28;20051;-52
2020/12/30 08:12:15;;;;;;;15.60;7.85;;;;;;;21.53;25.28;93976.25;5075393;28;20059;-54
2020/12/30 08:14:43;;;;;;;11.90;7.28;;;;;;;21.74;24.97;93985.59;5075410;28;20052;-51
2020/12/30 08:17:14;;;;;;;12.02;6.93;;;;;;;21.76;25.09;93980.66;5075193;28;20048;-54
2020/12/30 08:19:48;;;;;;;11.70;7.53;;;;;;;21.93;24.37;93980.06;5075249;28;20730;-55
2020/12/30 08:22:15;;;;;;;16.95;8.80;;;;;;;22.12;24.24;93979.13;5037791;28;20479;-51
2020/12/30 08:24:42;;;;;;;15.32;8.90;;;;;;;22.03;25.03;93976.72;5055215;28;20432;-53
2020/12/30 08:27:11;;;;;;;16.50;9.70;;;;;;;22.11;24.60;93982.91;5054995;28;20447;-51
2020/12/30 08:29:40;;;;;;;24.40;11.60;;;;;;;23.34;22.45;93976.06;5059701;28;20067;-51
2020/12/30 08:32:33;;;;;;;17.48;11.02;;;;;;;23.20;22.72;93979.44;5074871;28;20053;-52
2020/12/30 08:35:24;;;;;;;21.08;11.55;;;;;;;23.07;22.89;93957.66;5064551;28;20461;-51
2020/12/30 08:37:59;;;;;;;16.88;10.32;;;;;;;23.14;22.93;93967.59;5057385;28;20044;-52
2020/12/30 08:40:36;;;;;;;21.50;10.65;;;;;;;23.41;22.47;93969.97;5052155;28;20040;-53
2020/12/30 08:43:19;;;;;;;20.15;11.45;;;;;;;23.94;22.00;93954.09;5039756;28;20053;-51
2020/12/30 08:45:50;;;;;;;17.98;12.45;;;;;;;23.56;22.71;93952.91;5074822;28;20041;-54
2020/12/30 08:48:19;;;;;;;22.95;10.90;;;;;;;23.62;22.73;93964.72;5074654;28;20044;-53
2020/12/30 08:50:47;;;;;;;20.05;11.63;;;;;;;24.60;21.15;93949.91;5074244;28;20474;-54
2020/12/30 08:53:14;;;;;;;18.63;11.88;;;;;;;23.82;22.55;93946.47;5074609;28;20051;-56
2020/12/30 08:55:41;;;;;;;17.50;11.77;;;;;;;23.90;22.37;93927.41;5074718;28;20048;-55
2020/12/30 08:58:10;;;;;;;18.20;9.07;;;;;;;24.08;21.52;93926.66;5074069;28;20106;-53
2020/12/30 09:00:37;;;;;;;14.57;7.40;;;;;;;24.38;21.60;93918.25;5073810;28;20052;-56
2020/12/30 09:03:12;;;;;;;18.48;9.55;;;;;;;24.52;21.26;93921.69;5074115;28;20048;-55
2020/12/30 09:05:40;;;;;;;18.27;9.02;;;;;;;25.44;20.20;93911.81;5074468;28;20461;-54
2020/12/30 09:08:15;;;;;;;17.13;7.75;;;;;;;25.41;20.02;93907.25;5074282;28;20052;-51
2020/12/30 09:10:43;;;;;;;14.70;8.75;;;;;;;25.85;19.72;93916.56;5061083;28;20052;-54
2020/12/30 09:13:20;;;;;;;15.85;8.63;;;;;;;26.33;18.90;93895.88;5074535;28;20433;-53
2020/12/30 09:15:54;;;;;;;14.23;7.35;;;;;;;26.20;18.91;93902.88;5073892;28;20067;-56
2020/12/30 09:18:22;;;;;;;14.50;6.57;;;;;;;26.47;18.19;93915.69;5074143;28;20048;-53
2020/12/30 09:20:51;;;;;;;10.77;5.10;;;;;;;26.87;17.41;93906.84;5073757;28;20044;-57
2020/12/30 09:23:22;;;;;;;8.05;4.47;;;;;;;26.53;18.22;93914.06;5074150;28;20048;-53
2020/12/30 09:25:50;;;;;;;14.48;5.57;;;;;;;26.27;18.37;93897.44;5074284;28;20044;-52
2020/12/30 09:28:18;;;;;;;11.68;5.03;;;;;;;26.43;18.14;93895.03;5074068;28;20367;-57
2020/12/30 09:30:47;;;;;;;12.77;7.57;;;;;;;26.86;17.90;93889.22;5073572;28;20470;-56
2020/12/30 09:33:19;;;;;;;15.18;8.00;;;;;;;26.41;18.86;93915.34;5074341;28;20412;-53
2020/12/30 09:35:46;;;;;;;;;;;;;;;26.76;19.19;93895.44;5074405;28;20055;-52
2020/12/30 09:38:19;;;;;;;13.18;5.13;;;;;;;27.52;17.28;93891.47;5073984;28;20247;-55
2020/12/30 09:40:48;;;;;;;10.70;5.45;;;;;;;27.62;17.44;93898.66;5073417;28;20055;-54
2020/12/30 09:43:20;;;;;;;13.77;6.80;;;;;;;27.71;17.20;93903.50;5073939;28;20048;-57
2020/12/30 09:45:49;;;;;;;13.43;6.68;;;;;;;27.77;17.85;93901.13;5074020;28;20478;-55
2020/12/30 09:48:18;;;;;;;15.00;8.52;;;;;;;27.81;17.08;93904.50;5073678;28;20044;-54
2020/12/30 09:50:47;;;;;;;14.30;7.43;;;;;;;28.44;16.79;93907.38;5073382;28;20052;-55
2020/12/30 09:53:15;;;;;;;17.90;10.75;;;;;;;28.33;17.02;93909.47;5073829;28;20047;-53
2020/12/30 09:55:46;;;;;;;20.17;14.30;;;;;;;27.73;17.21;93900.41;5073810;28;20048;-55
2020/12/30 09:58:14;;;;;;;136.07;107.30;;;;;;;28.29;17.47;93896.09;5073615;28;20071;-55
2020/12/30 10:00:41;;;;;;;23.30;15.38;;;;;;;28.44;16.78;93891.22;5072560;28;20094;-53
2020/12/30 10:03:08;;;;;;;21.50;14.60;;;;;;;28.19;17.52;93900.44;5072891;28;20052;-52
2020/12/30 10:05:36;;;;;;;12.50;7.35;;;;;;;28.40;17.21;93891.31;5072844;28;20048;-53
2020/12/30 10:08:03;;;;;;;11.23;5.70;;;;;;;27.86;17.36;93882.56;5072839;28;20047;-54
2020/12/30 10:10:31;;;;;;;9.00;5.53;;;;;;;27.75;18.23;93871.97;5075502;28;20051;-55
2020/12/30 10:12:58;;;;;;;15.65;6.68;;;;;;;28.27;17.79;93876.16;5076182;28;20053;-53
2020/12/30 10:15:27;;;;;;;13.70;8.55;;;;;;;28.71;17.65;93886.50;5076176;28;20040;-58
2020/12/30 10:17:54;;;;;;;12.63;6.28;;;;;;;28.85;16.51;93897.00;5056116;28;20041;-55
2020/12/30 10:20:22;;;;;;;10.60;5.97;;;;;;;28.91;16.96;93866.97;5056536;28;20049;-52
2020/12/30 10:22:49;;;;;;;9.73;5.10;;;;;;;29.43;16.17;93870.47;5076255;28;20382;-55
2020/12/30 10:25:16;;;;;;;6.45;3.70;;;;;;;29.39;15.89;93855.56;5076003;28;20055;-51
2020/12/30 10:27:45;;;;;;;5.60;2.55;;;;;;;30.02;15.03;93871.47;5058300;28;20048;-56
2020/12/30 10:30:12;;;;;;;8.85;3.42;;;;;;;29.87;15.15;93860.25;5075443;28;20371;-52
2020/12/30 10:32:40;;;;;;;10.02;4.55;;;;;;;29.88;15.84;93859.06;5075771;28;20052;-53
2020/12/30 10:35:07;;;;;;;10.15;5.80;;;;;;;30.08;14.90;93867.09;5075826;28;20044;-55
2020/12/30 10:37:34;;;;;;;11.10;5.03;;;;;;;30.00;14.39;93853.00;5075912;28;20044;-52
2020/12/30 10:40:03;;;;;;;6.40;3.22;;;;;;;30.09;14.45;93847.06;5075638;28;20052;-56
2020/12/30 10:42:30;;;;;;;9.85;4.38;;;;;;;30.57;14.28;93846.19;5057957;28;20045;-54
2020/12/30 10:44:57;;;;;;;7.65;4.70;;;;;;;30.38;14.79;93849.78;5061590;28;20059;-55
2020/12/30 10:47:24;;;;;;;11.45;3.90;;;;;;;30.69;14.73;93842.81;5075596;28;20466;-53
2020/12/30 10:49:51;;;;;;;8.80;3.53;;;;;;;30.58;14.68;93852.34;5075707;28;20048;-56
2020/12/30 10:52:18;;;;;;;4.18;2.13;;;;;;;30.49;14.54;93844.88;5075506;28;20459;-55
2020/12/30 10:54:45;;;;;;;6.05;2.20;;;;;;;30.51;14.03;93842.50;5075776;28;20048;-56
2020/12/30 10:57:12;;;;;;;5.90;2.15;;;;;;;30.86;13.68;93845.44;5075745;28;20671;-59
2020/12/30 10:59:40;;;;;;;4.57;2.45;;;;;;;30.89;13.55;93849.97;5051710;28;657677;-56
2020/12/30 11:02:07;;;;;;;6.82;1.90;;;;;;;31.49;13.46;93842.09;5076488;28;20047;-52
2020/12/30 11:04:34;;;;;;;6.68;1.40;;;;;;;31.16;13.62;93819.91;5076142;28;20045;-55
2020/12/30 11:07:04;;;;;;;7.93;1.77;;;;;;;31.25;14.07;93847.06;5076624;28;20049;-53
2020/12/30 11:09:31;;;;;;;5.13;1.58;;;;;;;30.91;13.87;93826.03;5076337;28;20044;-53
2020/12/30 11:11:58;;;;;;;6.07;1.40;;;;;;;30.21;14.18;93830.19;5064860;28;20052;-52
2020/12/30 11:14:27;;;;;;;5.30;1.10;;;;;;;29.92;14.42;93830.09;5076588;28;20048;-45
2020/12/30 11:16:54;;;;;;;4.75;1.40;;;;;;;29.60;14.64;93824.72;5076676;28;20056;-49
2020/12/30 11:19:21;;;;;;;4.22;1.20;;;;;;;29.54;14.58;93824.47;5076025;28;20040;-49
2020/12/30 11:21:52;;;;;;;9.18;1.60;;;;;;;29.31;14.83;93828.03;5075700;28;20044;-47
2020/12/30 11:24:21;;;;;;;6.60;1.30;;;;;;;28.89;15.14;93818.16;5069937;28;20044;-50
2020/12/30 11:26:49;;;;;;;7.13;1.60;;;;;;;28.64;15.32;93805.22;5072316;28;20048;-48
2020/12/30 11:29:17;;;;;;;8.45;1.70;;;;;;;29.10;14.74;93825.81;5075697;28;20055;-47
2020/12/30 11:31:45;;;;;;;3.20;1.38;;;;;;;29.16;15.07;93824.91;5055690;28;20452;-47
2020/12/30 11:34:12;;;;;;;7.50;1.60;;;;;;;29.60;14.61;93795.88;5072118;28;20063;-47
2020/12/30 11:36:40;;;;;;;6.30;1.67;;;;;;;28.67;15.23;93799.00;5076149;28;20085;-50